createdAt,value
2022-08-07T00:01:44.288Z,42.50
2022-08-07T00:04:11.191Z,42.63
2022-08-07T00:06:51.162Z,43.13
2022-08-07T00:09:29.247Z,43.39
2022-08-07T00:12:04.877Z,42.96
2022-08-07T00:14:33.991Z,41.82
2022-08-07T00:17:03.730Z,42.65
2022-08-07T00:20:02.487Z,42.75
2022-08-07T00:22:35.251Z,42.73
2022-08-07T00:25:06.985Z,42.62
2022-08-07T00:27:52.255Z,43.79
2022-08-07T00:30:26.983Z,42.71
2022-08-07T00:32:58.268Z,42.30
2022-08-07T00:35:30.240Z,42.54
2022-08-07T00:38:02.701Z,42.94
2022-08-07T00:40:39.028Z,43.21
2022-08-07T00:43:58.661Z,44.14
2022-08-07T00:46:02.351Z,43.97
2022-08-07T00:48:32.607Z,44.49
2022-08-07T00:51:03.731Z,44.57
2022-08-07T00:53:39.387Z,43.44
2022-08-07T00:56:19.161Z,44.36
2022-08-07T00:58:49.720Z,45.96
2022-08-07T01:01:20.237Z,47.74
2022-08-07T01:03:56.508Z,48.25
2022-08-07T01:06:30.426Z,49.00
2022-08-07T01:09:02.796Z,50.69
2022-08-07T01:12:09.538Z,51.94
2022-08-07T01:14:28.388Z,52.01
2022-08-07T01:16:58.272Z,52.70
2022-08-07T01:19:32.611Z,52.86
2022-08-07T01:22:03.872Z,51.43
2022-08-07T01:24:38.479Z,51.08
2022-08-07T01:27:29.140Z,50.44
2022-08-07T01:29:56.067Z,53.17
2022-08-07T01:32:24.959Z,51.97
2022-08-07T01:34:56.065Z,52.13
2022-08-07T01:37:28.030Z,53.36
2022-08-07T01:39:59.961Z,53.75
2022-08-07T01:42:39.442Z,53.48
2022-08-07T01:45:22.806Z,52.02
2022-08-07T01:48:21.518Z,52.74
2022-08-07T01:50:58.912Z,50.98
2022-08-07T01:54:00.789Z,49.69
2022-08-07T01:56:25.452Z,48.83
2022-08-07T01:59:02.258Z,48.47
2022-08-07T02:01:59.851Z,47.95
2022-08-07T02:04:28.660Z,48.00
2022-08-07T02:07:00.126Z,48.63
2022-08-07T02:09:33.791Z,48.82
2022-08-07T02:12:29.335Z,48.96
2022-08-07T02:15:01.746Z,49.09
2022-08-07T02:17:37.129Z,48.46
2022-08-07T02:20:17.421Z,48.43
2022-08-07T02:22:55.102Z,48.56
2022-08-07T02:26:10.874Z,47.82
2022-08-07T02:28:24.542Z,48.59
2022-08-07T02:30:55.141Z,48.05
2022-08-07T02:33:41.844Z,47.96
2022-08-07T02:36:30.362Z,48.26
2022-08-07T02:39:00.627Z,48.53
2022-08-07T02:41:33.561Z,48.73
2022-08-07T02:44:06.499Z,49.33
2022-08-07T02:46:36.812Z,49.86
2022-08-07T02:49:05.939Z,49.07
2022-08-07T02:51:49.734Z,49.11
2022-08-07T02:54:21.811Z,49.35
2022-08-07T02:56:56.260Z,48.89
2022-08-07T02:59:27.405Z,48.87
2022-08-07T03:01:57.569Z,49.73
2022-08-07T03:04:30.876Z,48.90
2022-08-07T03:07:07.112Z,49.72
2022-08-07T03:09:43.838Z,49.87
2022-08-07T03:12:22.174Z,50.01
2022-08-07T03:14:52.882Z,49.57
2022-08-07T03:17:22.170Z,49.51
2022-08-07T03:19:54.452Z,49.54
2022-08-07T03:22:29.523Z,50.63
2022-08-07T03:25:00.982Z,50.37
2022-08-07T03:27:59.712Z,51.14
2022-08-07T03:30:20.514Z,50.45
2022-08-07T03:32:58.505Z,50.74
2022-08-07T03:35:43.815Z,51.66
2022-08-07T03:38:21.179Z,52.54
2022-08-07T03:41:00.369Z,52.74
2022-08-07T03:43:33.075Z,53.18
2022-08-07T03:46:10.434Z,52.59
2022-08-07T03:49:02.548Z,51.74
2022-08-07T03:51:47.437Z,50.89
2022-08-07T03:54:36.187Z,51.94
2022-08-07T03:57:11.846Z,51.37
2022-08-07T04:00:03.837Z,51.49
2022-08-07T04:02:33.148Z,52.45
2022-08-07T04:05:01.917Z,52.11
2022-08-07T04:07:35.828Z,52.83
2022-08-07T04:10:15.517Z,53.14
2022-08-07T04:12:44.593Z,52.73
2022-08-07T04:15:15.049Z,53.00
2022-08-07T04:18:57.257Z,52.52
2022-08-07T04:20:35.172Z,52.97
2022-08-07T04:23:06.131Z,52.65
2022-08-07T04:25:39.386Z,52.11
2022-08-07T04:28:13.542Z,51.96
2022-08-07T04:30:55.331Z,52.02
2022-08-07T04:33:27.104Z,52.37
2022-08-07T04:35:56.789Z,52.30
2022-08-07T04:38:27.338Z,52.62
2022-08-07T04:40:56.681Z,53.16
2022-08-07T04:44:10.625Z,53.33
2022-08-07T04:46:29.320Z,53.51
2022-08-07T04:49:17.531Z,54.00
2022-08-07T04:51:55.771Z,52.92
2022-08-07T04:54:31.706Z,53.98
2022-08-07T04:58:10.084Z,52.56
2022-08-07T05:00:11.306Z,52.92
2022-08-07T05:02:51.560Z,53.71
2022-08-07T05:05:53.155Z,53.07
2022-08-07T05:08:17.285Z,53.34
2022-08-07T05:11:11.905Z,53.73
2022-08-07T05:14:54.220Z,53.61
2022-08-07T05:16:47.539Z,53.59
2022-08-07T05:19:32.707Z,54.31
2022-08-07T05:22:26.829Z,54.50
2022-08-07T05:24:59.548Z,54.79
2022-08-07T05:28:16.515Z,53.92
2022-08-07T05:30:30.027Z,53.94
2022-08-07T05:33:03.361Z,53.68
2022-08-07T05:35:41.689Z,51.64
2022-08-07T05:38:12.710Z,49.42
2022-08-07T05:41:05.310Z,47.70
2022-08-07T05:43:49.718Z,48.73
2022-08-07T05:46:30.427Z,49.09
2022-08-07T05:48:59.816Z,49.49
2022-08-07T05:51:31.414Z,49.61
2022-08-07T05:54:09.726Z,50.98
2022-08-07T05:56:51.336Z,51.65
2022-08-07T05:59:20.971Z,51.69
2022-08-07T06:01:51.496Z,52.67
2022-08-07T06:04:21.324Z,52.38
2022-08-07T06:07:04.444Z,53.21
2022-08-07T06:10:04.157Z,52.77
2022-08-07T06:12:31.673Z,52.75
2022-08-07T06:15:05.732Z,51.87
2022-08-07T06:17:38.248Z,52.88
2022-08-07T06:20:12.681Z,52.87
2022-08-07T06:23:02.118Z,53.52
2022-08-07T06:25:54.028Z,54.44
2022-08-07T06:28:28.127Z,55.18
2022-08-07T06:30:58.423Z,55.02
2022-08-07T06:33:27.366Z,54.98
2022-08-07T06:36:12.201Z,54.70
2022-08-07T06:38:51.614Z,55.39
2022-08-07T06:42:00.552Z,55.34
2022-08-07T06:44:24.247Z,55.65
2022-08-07T06:47:10.153Z,55.76
2022-08-07T06:49:51.888Z,56.07
2022-08-07T06:52:31.825Z,55.61
2022-08-07T06:55:32.353Z,55.44
2022-08-07T06:58:04.821Z,55.16
2022-08-07T07:00:36.864Z,54.77
2022-08-07T07:03:08.668Z,54.86
2022-08-07T07:06:03.981Z,54.80
2022-08-07T07:08:33.549Z,52.69
2022-08-07T07:11:13.183Z,51.15
2022-08-07T07:14:01.345Z,49.41
2022-08-07T07:16:49.459Z,48.03
2022-08-07T07:19:55.698Z,47.10
2022-08-07T07:22:36.215Z,44.92
2022-08-07T07:26:30.564Z,44.58
2022-08-07T07:28:03.088Z,44.13
2022-08-07T07:30:40.157Z,44.07
2022-08-07T07:33:12.388Z,43.61
2022-08-07T07:36:04.169Z,43.90
2022-08-07T07:38:36.057Z,44.10
2022-08-07T07:41:08.548Z,43.61
2022-08-07T07:44:13.772Z,41.41
2022-08-07T07:46:37.964Z,39.06
2022-08-07T07:50:29.732Z,40.29
2022-08-07T07:52:15.837Z,39.04
2022-08-07T07:54:51.462Z,37.80
2022-08-07T07:57:52.586Z,37.40
2022-08-07T08:00:29.167Z,36.71
2022-08-07T08:03:06.306Z,37.49
2022-08-07T08:05:54.496Z,36.51
2022-08-07T08:08:34.862Z,35.41
2022-08-07T08:11:16.173Z,34.99
2022-08-07T08:13:56.393Z,36.05
2022-08-07T08:16:31.121Z,35.38
2022-08-07T08:19:17.224Z,36.03
2022-08-07T08:22:06.305Z,35.03
2022-08-07T08:25:18.690Z,35.19
2022-08-07T08:27:57.154Z,35.86
2022-08-07T08:30:34.810Z,33.88
2022-08-07T08:33:10.526Z,35.09
2022-08-07T08:35:49.690Z,34.62
2022-08-07T08:38:29.528Z,33.16
2022-08-07T08:41:03.838Z,33.47
2022-08-07T08:43:41.995Z,34.22
2022-08-07T08:46:15.465Z,33.62
2022-08-07T08:48:50.893Z,34.43
2022-08-07T08:52:12.627Z,33.11
2022-08-07T08:54:21.921Z,33.51
2022-08-07T08:56:54.631Z,34.17
2022-08-07T08:59:30.727Z,30.83
2022-08-07T09:02:16.689Z,31.02
2022-08-07T09:05:26.367Z,29.20
2022-08-07T09:08:10.402Z,27.69
2022-08-07T09:10:44.935Z,30.63
2022-08-07T09:13:19.085Z,28.52
2022-08-07T09:16:25.229Z,28.76
2022-08-07T09:19:53.438Z,29.35
2022-08-07T09:24:30.559Z,27.74
2022-08-07T09:25:17.937Z,29.27
2022-08-07T09:28:00.606Z,30.63
2022-08-07T09:30:39.296Z,28.25
2022-08-07T09:33:41.143Z,27.95
2022-08-07T09:36:12.792Z,27.86
2022-08-07T09:38:53.825Z,29.20
2022-08-07T09:41:36.292Z,28.91
2022-08-07T09:44:32.676Z,27.80
2022-08-07T09:47:52.259Z,27.95
2022-08-07T09:50:19.534Z,27.16
2022-08-07T09:52:51.743Z,28.90
2022-08-07T09:55:29.563Z,25.45
2022-08-07T09:58:42.416Z,25.51
2022-08-07T10:01:52.240Z,25.71
2022-08-07T10:04:32.939Z,29.08
2022-08-07T10:07:25.562Z,26.37
2022-08-07T10:10:06.283Z,25.67
2022-08-07T10:12:55.755Z,25.94
2022-08-07T10:15:44.515Z,26.89
2022-08-07T10:18:36.949Z,25.53
2022-08-07T10:22:15.134Z,28.18
2022-08-07T10:24:27.414Z,25.01
2022-08-07T10:27:10.547Z,24.71
2022-08-07T10:30:06.574Z,24.30
2022-08-07T10:33:06.456Z,25.76
2022-08-07T10:35:55.348Z,25.20
2022-08-07T10:38:48.238Z,24.42
2022-08-07T10:41:51.609Z,26.32
2022-08-07T10:44:37.792Z,24.44
2022-08-07T10:47:18.728Z,23.41
2022-08-07T10:49:59.766Z,24.98
2022-08-07T10:52:34.474Z,22.86
2022-08-07T10:55:27.108Z,22.54
2022-08-07T10:58:06.937Z,23.75
2022-08-07T11:00:50.267Z,23.35
2022-08-07T11:03:37.938Z,23.05
2022-08-07T11:06:23.169Z,23.62
2022-08-07T11:09:00.920Z,23.98
2022-08-07T11:11:35.641Z,25.37
2022-08-07T11:14:43.718Z,25.04
2022-08-07T11:17:07.102Z,26.28
2022-08-07T11:19:43.914Z,25.62
2022-08-07T11:22:32.229Z,22.39
2022-08-07T11:25:11.057Z,22.20
2022-08-07T11:28:02.494Z,22.36
2022-08-07T11:30:41.862Z,23.26
2022-08-07T11:33:53.352Z,23.06
2022-08-07T11:36:25.195Z,23.05
2022-08-07T11:39:00.211Z,25.55
2022-08-07T11:42:02.520Z,22.69
2022-08-07T11:44:29.344Z,25.40
2022-08-07T11:47:02.729Z,26.84
2022-08-07T11:50:30.126Z,23.50
2022-08-07T11:53:05.167Z,22.71
2022-08-07T11:56:09.555Z,25.47
2022-08-07T11:58:49.012Z,25.42
2022-08-07T12:01:59.337Z,22.29
2022-08-07T12:04:38.061Z,22.74
2022-08-07T12:07:27.250Z,23.48
2022-08-07T12:10:05.586Z,22.46
2022-08-07T12:12:39.146Z,23.26
2022-08-07T12:15:35.432Z,22.14
2022-08-07T12:18:11.348Z,21.98
2022-08-07T12:20:49.327Z,22.99
2022-08-07T12:24:05.919Z,21.78
2022-08-07T12:26:29.763Z,22.36
2022-08-07T12:29:08.734Z,23.84
2022-08-07T12:32:02.236Z,22.17
2022-08-07T12:34:33.740Z,24.00
2022-08-07T12:37:08.745Z,23.17
2022-08-07T12:39:50.545Z,23.69
2022-08-07T12:42:28.118Z,23.24
2022-08-07T12:44:59.272Z,25.29
2022-08-07T12:47:37.452Z,23.40
2022-08-07T12:50:38.697Z,24.03
2022-08-07T12:53:05.204Z,23.83
2022-08-07T12:56:02.975Z,24.46
2022-08-07T12:58:39.530Z,24.46
2022-08-07T13:01:21.872Z,24.34
2022-08-07T13:04:13.677Z,24.58
2022-08-07T13:08:13.560Z,25.22
2022-08-07T13:10:38.544Z,25.01
2022-08-07T13:13:48.212Z,26.28
2022-08-07T13:16:13.656Z,26.15
2022-08-07T13:18:50.701Z,24.80
2022-08-07T13:21:37.587Z,24.41
2022-08-07T13:24:20.835Z,25.17
2022-08-07T13:27:02.875Z,24.98
2022-08-07T13:29:42.446Z,24.88
2022-08-07T13:32:31.885Z,25.50
2022-08-07T13:35:08.758Z,24.87
2022-08-07T13:37:43.358Z,24.68
2022-08-07T13:40:35.914Z,26.16
2022-08-07T13:43:13.722Z,23.73
2022-08-07T13:46:11.145Z,25.15
2022-08-07T13:48:38.990Z,24.87
2022-08-07T13:51:27.293Z,24.01
2022-08-07T13:54:03.064Z,23.88
2022-08-07T13:56:36.119Z,24.65
2022-08-07T13:59:15.620Z,23.62
2022-08-07T14:02:03.551Z,23.37
2022-08-07T14:04:49.354Z,23.24
2022-08-07T14:07:22.946Z,24.65
2022-08-07T14:10:08.445Z,23.61
2022-08-07T14:12:54.749Z,23.88
2022-08-07T14:15:35.079Z,24.42
2022-08-07T14:18:27.531Z,24.85
2022-08-07T14:21:20.659Z,23.81
2022-08-07T14:24:01.197Z,24.82
2022-08-07T14:30:07.962Z,24.53
2022-08-07T14:32:16.149Z,23.82
2022-08-07T14:34:49.397Z,24.36
2022-08-07T14:37:36.030Z,24.15
2022-08-07T14:40:17.170Z,23.74
2022-08-07T14:43:01.483Z,24.56
2022-08-07T14:45:49.157Z,24.38
2022-08-07T14:48:21.490Z,24.41
2022-08-07T14:50:57.725Z,24.34
2022-08-07T14:54:08.615Z,26.02
2022-08-07T14:56:30.072Z,24.71
2022-08-07T14:59:02.810Z,24.72
2022-08-07T15:01:42.521Z,25.81
2022-08-07T15:07:17.765Z,24.55
2022-08-07T15:09:59.676Z,26.02
2022-08-07T15:12:34.266Z,25.00
2022-08-07T15:15:09.221Z,25.01
2022-08-07T15:17:55.895Z,25.12
2022-08-07T15:20:33.840Z,25.18
2022-08-07T15:23:21.649Z,24.88
2022-08-07T15:26:21.061Z,26.40
2022-08-07T15:32:01.853Z,24.63
2022-08-07T15:34:35.357Z,24.31
2022-08-07T15:37:06.981Z,25.91
2022-08-07T15:42:51.714Z,25.54
2022-08-07T15:48:25.765Z,25.11
2022-08-07T15:51:01.367Z,27.97
2022-08-07T15:53:42.175Z,26.81
2022-08-07T15:56:24.673Z,26.22
2022-08-07T15:58:57.901Z,25.42
2022-08-07T16:01:38.818Z,25.58
2022-08-07T16:04:14.755Z,26.83
2022-08-07T16:06:50.354Z,25.65
2022-08-07T16:09:41.967Z,26.07
2022-08-07T16:12:25.063Z,25.80
2022-08-07T16:15:42.112Z,27.58
2022-08-07T16:18:08.258Z,27.65
2022-08-07T16:21:42.982Z,27.80
2022-08-07T16:23:53.986Z,25.79
2022-08-07T16:26:36.263Z,27.83
2022-08-07T16:30:07.140Z,26.37
2022-08-07T16:32:06.224Z,27.11
2022-08-07T16:34:41.145Z,28.54
2022-08-07T16:38:06.696Z,25.65
2022-08-07T16:41:16.474Z,27.23
2022-08-07T16:44:46.405Z,26.45
2022-08-07T16:47:36.001Z,25.19
2022-08-07T16:50:35.679Z,25.54
2022-08-07T16:54:02.756Z,26.27
2022-08-07T16:56:13.654Z,25.24
2022-08-07T16:59:10.676Z,25.72
2022-08-07T17:01:50.422Z,25.25
2022-08-07T17:04:32.318Z,25.30
2022-08-07T17:07:10.192Z,26.35
2022-08-07T17:10:08.114Z,26.55
2022-08-07T17:12:46.193Z,26.55
2022-08-07T17:15:21.005Z,26.07
2022-08-07T17:18:00.114Z,25.54
2022-08-07T17:20:35.563Z,25.72
2022-08-07T17:23:16.935Z,26.42
2022-08-07T17:25:54.965Z,25.89
2022-08-07T17:28:41.288Z,25.61
2022-08-07T17:31:26.756Z,26.38
2022-08-07T17:34:18.267Z,26.53
2022-08-07T17:36:59.962Z,27.18
2022-08-07T17:39:58.458Z,27.48
2022-08-07T17:42:59.742Z,28.45
2022-08-07T17:45:35.290Z,25.57
2022-08-07T17:48:11.116Z,27.03
2022-08-07T17:50:56.431Z,27.20
2022-08-07T17:54:00.151Z,26.61
2022-08-07T17:56:31.911Z,26.04
2022-08-07T17:59:05.743Z,25.73
2022-08-07T18:01:47.335Z,26.09
2022-08-07T18:04:31.137Z,26.80
2022-08-07T18:07:20.424Z,27.33
2022-08-07T18:10:07.442Z,25.52
2022-08-07T18:12:53.016Z,27.28
2022-08-07T18:15:32.754Z,26.95
2022-08-07T18:18:46.955Z,26.14
2022-08-07T18:21:37.188Z,26.37
2022-08-07T18:24:00.970Z,27.51
2022-08-07T18:27:10.648Z,27.18
2022-08-07T18:30:31.453Z,26.97
2022-08-07T18:33:39.191Z,26.54
2022-08-07T18:36:32.821Z,28.03
2022-08-07T18:40:07.038Z,27.24
2022-08-07T18:42:13.506Z,26.43
2022-08-07T18:45:43.955Z,26.01
2022-08-07T18:48:01.456Z,25.94
2022-08-07T18:50:47.005Z,26.97
2022-08-07T18:53:36.963Z,27.42
2022-08-07T18:56:15.886Z,27.47
2022-08-07T18:58:58.352Z,27.76
2022-08-07T19:02:32.999Z,27.15
2022-08-07T19:04:38.683Z,28.73
2022-08-07T19:07:34.650Z,26.96
2022-08-07T19:10:14.831Z,28.42
2022-08-07T19:13:11.844Z,27.09
2022-08-07T19:16:04.931Z,27.44
2022-08-07T19:18:44.648Z,26.79
2022-08-07T19:21:47.466Z,27.80
2022-08-07T19:24:11.773Z,27.61
2022-08-07T19:28:30.999Z,26.75
2022-08-07T19:31:05.543Z,26.62
2022-08-07T19:32:46.934Z,27.95
2022-08-07T19:35:24.504Z,27.40
2022-08-07T19:37:58.318Z,27.39
2022-08-07T19:40:31.151Z,27.80
2022-08-07T19:43:08.397Z,28.06
2022-08-07T19:46:07.669Z,27.58
2022-08-07T19:48:42.605Z,27.03
2022-08-07T19:51:20.172Z,27.63
2022-08-07T19:54:31.046Z,27.26
2022-08-07T19:58:02.557Z,27.16
2022-08-07T19:59:41.181Z,28.55
2022-08-07T20:02:15.750Z,27.10
2022-08-07T20:04:51.827Z,27.36
2022-08-07T20:07:46.433Z,27.72
2022-08-07T20:10:36.967Z,27.35
2022-08-07T20:13:22.820Z,27.19
2022-08-07T20:15:55.240Z,27.47
2022-08-07T20:18:32.684Z,27.60
2022-08-07T20:21:20.966Z,29.64
2022-08-07T20:23:54.899Z,29.89
2022-08-07T20:26:32.233Z,28.72
2022-08-07T20:29:46.711Z,28.42
2022-08-07T20:32:00.644Z,29.11
2022-08-07T20:34:49.355Z,31.58
2022-08-07T20:37:25.202Z,30.21
2022-08-07T20:40:02.979Z,32.03
2022-08-07T20:42:35.203Z,31.79
2022-08-07T20:46:24.250Z,32.83
2022-08-07T20:47:58.381Z,32.58
2022-08-07T20:50:29.101Z,32.89
2022-08-07T20:53:00.904Z,33.21
2022-08-07T20:55:31.968Z,34.52
2022-08-07T20:58:03.270Z,34.25
2022-08-07T21:00:42.580Z,34.03
2022-08-07T21:03:14.952Z,33.68
2022-08-07T21:05:55.800Z,34.53
2022-08-07T21:08:37.002Z,35.83
2022-08-07T21:11:10.686Z,35.08
2022-08-07T21:13:57.495Z,36.51
2022-08-07T21:16:37.769Z,35.72
2022-08-07T21:19:32.145Z,35.75
2022-08-07T21:22:19.525Z,36.45
2022-08-07T21:25:12.035Z,36.64
2022-08-07T21:27:53.794Z,35.87
2022-08-07T21:30:30.115Z,36.01
2022-08-07T21:33:14.144Z,36.67
2022-08-07T21:36:05.630Z,36.08
2022-08-07T21:38:45.481Z,36.11
2022-08-07T21:41:25.760Z,36.73
2022-08-07T21:43:58.460Z,36.27
2022-08-07T21:46:37.092Z,36.09
2022-08-07T21:49:14.538Z,35.75
2022-08-07T21:51:55.704Z,36.44
2022-08-07T21:54:30.963Z,36.08
2022-08-07T21:57:30.788Z,37.38
2022-08-07T22:00:07.416Z,36.94
2022-08-07T22:02:42.848Z,36.21
2022-08-07T22:05:22.184Z,37.73
2022-08-07T22:08:03.397Z,39.06
2022-08-07T22:10:35.619Z,38.96
2022-08-07T22:13:09.398Z,39.22
2022-08-07T22:16:44.521Z,39.79
2022-08-07T22:18:37.126Z,40.82
2022-08-07T22:21:12.562Z,40.13
2022-08-07T22:23:45.581Z,40.51
2022-08-07T22:26:21.041Z,41.08
2022-08-07T22:28:58.384Z,41.00
2022-08-07T22:31:59.440Z,40.52
2022-08-07T22:34:35.603Z,41.26
2022-08-07T22:37:12.404Z,42.35
2022-08-07T22:39:53.750Z,43.56
2022-08-07T22:42:25.573Z,42.50
2022-08-07T22:45:02.258Z,41.73
2022-08-07T22:48:02.165Z,40.87
2022-08-07T22:51:06.443Z,40.30
2022-08-07T22:54:06.869Z,39.38
2022-08-07T22:56:46.818Z,40.68
2022-08-07T22:59:42.557Z,41.29
2022-08-07T23:02:40.032Z,41.83
2022-08-07T23:06:08.856Z,41.30
2022-08-07T23:08:46.096Z,42.06
2022-08-07T23:11:35.093Z,42.90
2022-08-07T23:14:26.292Z,43.53
2022-08-07T23:17:15.452Z,43.05
2022-08-07T23:20:10.052Z,44.12
2022-08-07T23:22:52.443Z,43.36
2022-08-07T23:25:34.442Z,43.65
2022-08-07T23:28:21.129Z,43.67
2022-08-07T23:31:18.603Z,43.70
2022-08-07T23:34:38.155Z,44.11
2022-08-07T23:37:22.336Z,43.59
2022-08-07T23:40:04.472Z,45.19
2022-08-07T23:42:53.424Z,46.43
2022-08-07T23:45:33.260Z,46.07
2022-08-07T23:49:02.072Z,45.69
2022-08-07T23:53:00.393Z,43.98
2022-08-07T23:54:43.824Z,43.47
2022-08-07T23:57:20.325Z,44.98
